Time;durP1;ratioP1;P1;durP2;ratioP2;P2;SDS_P1;SDS_P2;PMS_P1;PMS_P2;Temp;Humidity;BMP_temperature;BMP_pressure;BME280_temperature;BME280_humidity;BME280_pressure;Samples;Min_cycle;Max_cycle;Signal;HPM_P1;HPM_P2
2022/01/20 00:01:46;;;;;;;;;;;;;;;;;;5052572;28;19928;-57
2022/01/20 00:04:21;;;;;;;;;;;;;;;;;;5052923;28;19932;-57
2022/01/20 00:20:29;;;;;;;;;;;;;;;;;;5052769;28;20030;-57
2022/01/20 00:25:53;;;;;;;;;;;;;;;;;;5052590;28;19916;-57
2022/01/20 00:26:45;;;;;;;;;;;;;;;;;;5051784;28;19920;-57
2022/01/20 00:29:20;;;;;;;;;;;;;;;;;;5052470;28;19971;-57
2022/01/20 00:31:48;;;;;;;;;;;;;;;;;;5052310;28;20288;-57
2022/01/20 00:34:18;;;;;;;;;;;;;;;;;;5051591;28;19920;-58
2022/01/20 00:39:28;;;;;;;;;;;;;;;;;;5052297;28;19958;-58
2022/01/20 00:41:54;;;;;;;;;;;;;;;;;;5051471;28;19928;-57
2022/01/20 00:44:20;;;;;;;;;;;;;;;;;;5052298;28;19924;-57
2022/01/20 00:46:46;;;;;;;;;;;;;;;;;;5051895;28;19966;-57
2022/01/20 00:49:13;;;;;;;;;;;;;;;;;;5051322;28;19920;-57
2022/01/20 00:51:39;;;;;;;;;;;;;;;;;;5051964;28;19921;-58
2022/01/20 00:54:05;;;;;;;;;;;;;;;;;;5051461;28;19927;-57
2022/01/20 00:56:31;;;;;;;;;;;;;;;;;;5051780;28;20392;-58
2022/01/20 00:58:57;;;;;;;;;;;;;;;;;;5051739;28;19924;-57
2022/01/20 01:01:23;;;;;;;;;;;;;;;;;;5050957;28;19920;-57
2022/01/20 01:03:49;;;;;;;;;;;;;;;;;;5051714;28;19967;-57
2022/01/20 01:06:28;;;;;;;;;;;;;;;;;;5051447;28;19985;-57
2022/01/20 01:08:54;;;;;;;;;;;;;;;;;;5050939;28;19920;-57
2022/01/20 01:11:22;;;;;;;;;;;;;;;;;;5051817;28;19971;-57
2022/01/20 01:13:49;;;;;;;;;;;;;;;;;;5051421;28;20260;-57
2022/01/20 01:16:17;;;;;;;;;;;;;;;;;;5050821;28;19982;-57
2022/01/20 01:21:30;;;;;;;;;;;;;;;;;;5051378;28;19955;-57
2022/01/20 01:23:56;;;;;;;;;;;;;;;;;;5050769;28;19921;-57
2022/01/20 01:26:25;;;;;;;;;;;;;;;;;;5051341;28;19974;-58
2022/01/20 01:28:52;;;;;;;;;;;;;;;;;;5051376;28;19925;-57
2022/01/20 01:31:34;;;;;;;;;;;;;;;;;;5050497;28;19921;-57
2022/01/20 01:34:03;;;;;;;;;;;;;;;;;;5051212;28;20363;-57
2022/01/20 01:36:43;;;;;;;;;;;;;;;;;;5050658;28;19925;-58
2022/01/20 01:39:09;;;;;;;;;;;;;;;;;;5051509;28;19921;-58
2022/01/20 01:41:37;;;;;;;;;;;;;;;;;;5051238;28;19966;-57
2022/01/20 01:44:07;;;;;;;;;;;;;;;;;;5050681;28;19971;-57
2022/01/20 01:46:33;;;;;;;;;;;;;;;;;;5051426;28;19921;-57
2022/01/20 01:48:59;;;;;;;;;;;;;;;;;;5051257;28;19920;-57
2022/01/20 01:51:25;;;;;;;;;;;;;;;;;;5050493;28;19969;-57
2022/01/20 01:53:51;;;;;;;;;;;;;;;;;;5051112;28;20038;-58
2022/01/20 01:56:17;;;;;;;;;;;;;;;;;;5051069;28;19920;-57
2022/01/20 01:58:43;;;;;;;;;;;;;;;;;;5050187;28;19975;-57
2022/01/20 02:01:09;;;;;;;;;;;;;;;;;;5051306;28;19920;-57
2022/01/20 02:03:43;;;;;;;;;;;;;;;;;;5051532;28;19921;-57
2022/01/20 02:06:25;;;;;;;;;;;;;;;;;;5050370;28;19990;-57
2022/01/20 02:08:58;;;;;;;;;;;;;;;;;;5051391;28;19925;-57
2022/01/20 02:19:39;;;;;;;;;;;;;;;;;;5050677;28;19921;-57
2022/01/20 02:22:05;;;;;;;;;;;;;;;;;;5050815;28;19921;-57
2022/01/20 02:24:31;;;;;;;;;;;;;;;;;;5051129;28;20476;-57
2022/01/20 02:26:57;;;;;;;;;;;;;;;;;;5049933;28;19924;-57
2022/01/20 02:29:23;;;;;;;;;;;;;;;;;;5050863;28;19982;-57
2022/01/20 02:31:49;;;;;;;;;;;;;;;;;;5053249;28;19925;-57
2022/01/20 02:34:17;;;;;;;;;;;;;;;;;;5053902;28;19929;-59
2022/01/20 02:36:45;;;;;;;;;;;;;;;;;;5054518;28;20023;-57
2022/01/20 02:39:26;;;;;;;;;;;;;;;;;;5054460;28;19970;-57
2022/01/20 02:44:53;;;;;;;;;;;;;;;;;;5054529;28;19963;-57
2022/01/20 02:47:19;;;;;;;;;;;;;;;;;;5053719;28;19921;-57
2022/01/20 02:49:45;;;;;;;;;;;;;;;;;;5054113;28;19951;-57
2022/01/20 02:52:11;;;;;;;;;;;;;;;;;;5054325;28;19929;-57
2022/01/20 02:54:37;;;;;;;;;;;;;;;;;;5053452;28;19975;-57
2022/01/20 02:57:03;;;;;;;;;;;;;;;;;;5054220;28;20011;-57
2022/01/20 02:59:30;;;;;;;;;;;;;;;;;;5054167;28;19970;-57
2022/01/20 03:01:56;;;;;;;;;;;;;;;;;;5053329;28;19920;-57
2022/01/20 03:04:25;;;;;;;;;;;;;;;;;;5053963;28;19981;-57
2022/01/20 03:06:51;;;;;;;;;;;;;;;;;;5053647;28;19925;-57
2022/01/20 03:09:17;;;;;;;;;;;;;;;;;;5053351;28;19924;-57
2022/01/20 03:11:43;;;;;;;;;;;;;;;;;;5054025;28;19921;-58
2022/01/20 03:14:10;;;;;;;;;;;;;;;;;;5053897;28;19974;-57
2022/01/20 03:16:36;;;;;;;;;;;;;;;;;;5053305;28;19924;-57
2022/01/20 03:19:02;;;;;;;;;;;;;;;;;;5053422;28;19929;-58
2022/01/20 03:21:28;;;;;;;;;;;;;;;;;;5053705;28;19924;-57
2022/01/20 03:23:54;;;;;;;;;;;;;;;;;;5052841;28;19920;-57
2022/01/20 03:26:20;;;;;;;;;;;;;;;;;;5053935;28;19975;-57
2022/01/20 03:28:46;;;;;;;;;;;;;;;;;;5052586;28;19920;-58
2022/01/20 03:31:12;;;;;;;;;;;;;;;;;;5053679;28;19951;-58
2022/01/20 03:33:38;;;;;;;;;;;;;;;;;;5053707;28;19963;-58
2022/01/20 03:36:04;;;;;;;;;;;;;;;;;;5052475;28;19920;-58
2022/01/20 03:38:30;;;;;;;;;;;;;;;;;;5053725;28;19920;-57
2022/01/20 03:40:57;;;;;;;;;;;;;;;;;;5053107;28;19924;-59
2022/01/20 03:43:23;;;;;;;;;;;;;;;;;;5051939;28;19990;-58
2022/01/20 03:45:54;;;;;;;;;;;;;;;;;;5053096;28;19974;-57
2022/01/20 03:48:20;;;;;;;;;;;;;;;;;;5053483;28;19975;-57
2022/01/20 03:51:02;;;;;;;;;;;;;;;;;;5051913;28;19920;-57
2022/01/20 03:53:28;;;;;;;;;;;;;;;;;;5053320;28;20011;-57
2022/01/20 03:55:54;;;;;;;;;;;;;;;;;;5052695;28;20345;-57
2022/01/20 03:58:20;;;;;;;;;;;;;;;;;;5052612;28;19920;-57
2022/01/20 04:00:46;;;;;;;;;;;;;;;;;;5052482;28;19921;-57
2022/01/20 04:03:13;;;;;;;;;;;;;;;;;;5052835;28;19974;-58
2022/01/20 04:05:50;;;;;;;;;;;;;;;;;;5052144;28;19925;-58
2022/01/20 04:08:16;;;;;;;;;;;;;;;;;;5053053;28;19921;-58
2022/01/20 04:10:42;;;;;;;;;;;;;;;;;;5052568;28;19921;-57
2022/01/20 04:13:09;;;;;;;;;;;;;;;;;;5052236;28;19920;-58
2022/01/20 04:15:38;;;;;;;;;;;;;;;;;;5052563;28;20460;-58
2022/01/20 04:18:04;;;;;;;;;;;;;;;;;;5051775;28;19932;-58
2022/01/20 04:20:30;;;;;;;;;;;;;;;;;;5052723;28;19929;-58
2022/01/20 04:22:56;;;;;;;;;;;;;;;;;;5052522;28;19924;-58
2022/01/20 04:25:22;;;;;;;;;;;;;;;;;;5051780;28;19925;-58
2022/01/20 04:27:48;;;;;;;;;;;;;;;;;;5052340;28;19982;-57
2022/01/20 04:30:14;;;;;;;;;;;;;;;;;;5052325;28;19994;-58
2022/01/20 04:32:41;;;;;;;;;;;;;;;;;;5051581;28;20007;-58
2022/01/20 04:35:07;;;;;;;;;;;;;;;;;;5052451;28;19928;-57
2022/01/20 04:37:33;;;;;;;;;;;;;;;;;;5052578;28;19921;-58
2022/01/20 04:40:02;;;;;;;;;;;;;;;;;;5051330;28;20303;-58
2022/01/20 04:42:29;;;;;;;;;;;;;;;;;;5052041;28;19921;-58
2022/01/20 04:45:00;;;;;;;;;;;;;;;;;;5051920;28;20355;-58
2022/01/20 04:47:34;;;;;;;;;;;;;;;;;;5051494;28;19927;-58
2022/01/20 04:58:12;;;;;;;;;;;;;;;;;;5052126;28;19919;-57
2022/01/20 05:00:38;;;;;;;;;;;;;;;;;;5051278;28;20275;-58
2022/01/20 05:03:05;;;;;;;;;;;;;;;;;;5051561;28;19928;-58
2022/01/20 05:05:31;;;;;;;;;;;;;;;;;;5051722;28;19921;-58
2022/01/20 05:07:57;;;;;;;;;;;;;;;;;;5050708;28;19921;-58
2022/01/20 05:10:23;;;;;;;;;;;;;;;;;;5052061;28;19920;-58
2022/01/20 05:13:05;;;;;;;;;;;;;;;;;;5051336;28;19967;-58
2022/01/20 05:15:32;;;;;;;;;;;;;;;;;;5051250;28;20036;-58
2022/01/20 05:17:58;;;;;;;;;;;;;;;;;;5051505;28;19921;-57
2022/01/20 05:20:24;;;;;;;;;;;;;;;;;;5051500;28;19921;-57
2022/01/20 05:22:50;;;;;;;;;;;;;;;;;;5050504;28;19975;-57
2022/01/20 05:25:16;;;;;;;;;;;;;;;;;;5051788;28;19920;-57
2022/01/20 05:27:42;;;;;;;;;;;;;;;;;;5051374;28;19928;-57
2022/01/20 05:30:08;;;;;;;;;;;;;;;;;;5050898;28;19921;-56
2022/01/20 05:32:34;;;;;;;;;;;;;;;;;;5051432;28;19971;-56
2022/01/20 05:35:00;;;;;;;;;;;;;;;;;;5051192;28;19990;-56
2022/01/20 05:37:27;;;;;;;;;;;;;;;;;;5050673;28;19966;-56
2022/01/20 05:39:53;;;;;;;;;;;;;;;;;;5051331;28;20002;-57
2022/01/20 05:42:19;;;;;;;;;;;;;;;;;;5051526;28;20287;-56
2022/01/20 05:44:49;;;;;;;;;;;;;;;;;;5050443;28;19951;-57
2022/01/20 05:47:18;;;;;;;;;;;;;;;;;;5051526;28;19925;-57
2022/01/20 05:49:44;;;;;;;;;;;;;;;;;;5050771;28;19921;-57
2022/01/20 05:52:10;;;;;;;;;;;;;;;;;;5051539;28;19920;-57
2022/01/20 05:54:36;;;;;;;;;;;;;;;;;;5051390;28;19921;-57
2022/01/20 05:57:02;;;;;;;;;;;;;;;;;;5050586;28;19986;-57
2022/01/20 05:59:28;;;;;;;;;;;;;;;;;;5051088;28;19970;-57
2022/01/20 06:01:58;;;;;;;;;;;;;;;;;;5050918;28;20311;-57
2022/01/20 06:04:25;;;;;;;;;;;;;;;;;;5050511;28;19921;-57
2022/01/20 06:06:51;;;;;;;;;;;;;;;;;;5053812;28;19974;-57
2022/01/20 06:09:17;;;;;;;;;;;;;;;;;;5055096;28;19967;-57
2022/01/20 06:11:43;;;;;;;;;;;;;;;;;;5054216;28;19921;-57
2022/01/20 06:14:09;;;;;;;;;;;;;;;;;;5054993;28;19924;-57
2022/01/20 06:16:37;;;;;;;;;;;;;;;;;;5054971;28;20334;-57
2022/01/20 06:19:03;;;;;;;;;;;;;;;;;;5054066;28;20011;-57
2022/01/20 06:21:29;;;;;;;;;;;;;;;;;;5054969;28;19924;-57
2022/01/20 06:23:55;;;;;;;;;;;;;;;;;;5054600;28;19955;-57
2022/01/20 06:26:21;;;;;;;;;;;;;;;;;;5054215;28;19921;-57
2022/01/20 06:28:47;;;;;;;;;;;;;;;;;;5054563;28;19920;-57
2022/01/20 06:31:13;;;;;;;;;;;;;;;;;;5054790;28;19920;-57
2022/01/20 06:33:39;;;;;;;;;;;;;;;;;;5053998;28;19920;-57
2022/01/20 06:36:05;;;;;;;;;;;;;;;;;;5054463;28;19924;-57
2022/01/20 06:38:31;;;;;;;;;;;;;;;;;;5054638;28;19920;-57
2022/01/20 06:40:57;;;;;;;;;;;;;;;;;;5053406;28;19963;-57
2022/01/20 06:43:24;;;;;;;;;;;;;;;;;;5054565;28;19982;-57
2022/01/20 06:45:50;;;;;;;;;;;;;;;;;;5053480;28;19963;-57
2022/01/20 06:48:16;;;;;;;;;;;;;;;;;;5054557;28;20320;-57
2022/01/20 06:50:42;;;;;;;;;;;;;;;;;;5054225;28;19921;-57
2022/01/20 06:53:08;;;;;;;;;;;;;;;;;;5053815;28;19920;-57
2022/01/20 06:55:34;;;;;;;;;;;;;;;;;;5038263;28;20506;-58
2022/01/20 06:58:01;;;;;;;;;;;;;;;;;;5033947;28;19925;-57
2022/01/20 07:00:27;;;;;;;;;;;;;;;;;;5042089;28;19980;-57
2022/01/20 07:02:53;;;;;;;;;;;;;;;;;;5053823;28;19982;-57
2022/01/20 07:05:19;;;;;;;;;;;;;;;;;;5054448;28;20333;-59
2022/01/20 07:07:45;;;;;;;;;;;;;;;;;;5052850;28;19921;-58
2022/01/20 07:10:11;;;;;;;;;;;;;;;;;;5053256;28;20439;-57
2022/01/20 07:12:37;;;;;;;;;;;;;;;;;;5054330;28;19974;-58
2022/01/20 07:15:03;;;;;;;;;;;;;;;;;;5052478;28;19925;-58
2022/01/20 07:17:29;;;;;;;;;;;;;;;;;;5052467;28;19990;-59
2022/01/20 07:19:55;;;;;;;;;;;;;;;;;;5053568;28;19983;-58
2022/01/20 07:22:22;;;;;;;;;;;;;;;;;;5052840;28;20011;-58
2022/01/20 07:24:48;;;;;;;;;;;;;;;;;;5052662;28;19924;-58
2022/01/20 07:27:14;;;;;;;;;;;;;;;;;;5053133;28;19920;-58
2022/01/20 07:29:40;;;;;;;;;;;;;;;;;;5052906;28;20397;-57
2022/01/20 07:32:07;;;;;;;;;;;;;;;;;;5053250;28;19920;-57
2022/01/20 07:34:33;;;;;;;;;;;;;;;;;;5052532;28;19933;-57
2022/01/20 07:36:59;;;;;;;;;;;;;;;;;;5052603;28;19920;-57
2022/01/20 07:39:25;;;;;;;;;;;;;;;;;;5053766;28;20425;-57
2022/01/20 07:41:51;;;;;;;;;;;;;;;;;;5052906;28;19967;-57
2022/01/20 07:44:19;;;;;;;;;;;;;;;;;;5052848;28;20375;-57
2022/01/20 07:46:45;;;;;;;;;;;;;;;;;;5053247;28;19921;-57
2022/01/20 07:49:12;;;;;;;;;;;;;;;;;;5052957;28;19920;-57
2022/01/20 07:51:38;;;;;;;;;;;;;;;;;;5053433;28;19921;-57
2022/01/20 07:54:04;;;;;;;;;;;;;;;;;;5053229;28;19974;-57
2022/01/20 07:56:30;;;;;;;;;;;;;;;;;;5052535;28;19994;-57
2022/01/20 07:58:56;;;;;;;;;;;;;;;;;;5053305;28;19974;-57
2022/01/20 08:01:22;;;;;;;;;;;;;;;;;;5053211;28;20334;-57
2022/01/20 08:03:48;;;;;;;;;;;;;;;;;;5052491;28;19920;-57
2022/01/20 08:06:14;;;;;;;;;;;;;;;;;;5052983;28;19924;-57
2022/01/20 08:08:40;;;;;;;;;;;;;;;;;;5053936;28;19921;-57
2022/01/20 08:11:06;;;;;;;;;;;;;;;;;;5052086;28;19924;-57
2022/01/20 08:13:32;;;;;;;;;;;;;;;;;;5053234;28;19974;-57
2022/01/20 08:15:58;;;;;;;;;;;;;;;;;;5052804;28;19990;-57
2022/01/20 08:18:24;;;;;;;;;;;;;;;;;;5052290;28;19924;-57
2022/01/20 08:20:50;;;;;;;;;;;;;;;;;;5052688;28;20334;-57
2022/01/20 08:23:17;;;;;;;;;;;;;;;;;;5052865;28;19920;-57
2022/01/20 08:25:43;;;;;;;;;;;;;;;;;;5051843;28;20330;-56
2022/01/20 08:28:09;;;;;;;;;;;;;;;;;;5052596;28;19932;-57
2022/01/20 08:30:35;;;;;;;;;;;;;;;;;;5052728;28;20337;-57
2022/01/20 08:33:01;;;;;;;;;;;;;;;;;;5051587;28;19971;-57
2022/01/20 08:35:31;;;;;;;;;;;;;;;;;;5052724;28;20375;-57
2022/01/20 08:37:58;;;;;;;;;;;;;;;;;;5052238;28;19952;-57
2022/01/20 08:40:24;;;;;;;;;;;;;;;;;;5051670;28;19925;-57
2022/01/20 08:42:50;;;;;;;;;;;;;;;;;;5052273;28;19920;-57
2022/01/20 08:45:16;;;;;;;;;;;;;;;;;;5051737;28;19921;-57
2022/01/20 08:47:43;;;;;;;;;;;;;;;;;;5052210;28;19925;-57
2022/01/20 08:50:09;;;;;;;;;;;;;;;;;;5052448;28;20019;-57
2022/01/20 08:52:35;;;;;;;;;;;;;;;;;;5051323;28;19925;-57
2022/01/20 08:55:01;;;;;;;;;;;;;;;;;;5052000;28;19996;-57
2022/01/20 08:57:27;;;;;;;;;;;;;;;;;;5052421;28;19928;-57
2022/01/20 08:59:53;;;;;;;;;;;;;;;;;;5051191;28;19943;-57
2022/01/20 09:02:19;;;;;;;;;;;;;;;;;;5052163;28;19966;-56
2022/01/20 09:04:45;;;;;;;;;;;;;;;;;;5051824;28;19921;-57
2022/01/20 09:07:12;;;;;;;;;;;;;;;;;;5051238;28;19967;-57
2022/01/20 09:09:42;;;;;;;;;;;;;;;;;;5051994;28;20322;-56
2022/01/20 09:12:18;;;;;;;;;;;;;;;;;;5052327;28;19966;-57
2022/01/20 09:17:29;;;;;;;;;;;;;;;;;;5052250;28;20370;-57
2022/01/20 09:19:55;;;;;;;;;;;;;;;;;;5051368;28;19925;-57
2022/01/20 09:22:21;;;;;;;;;;;;;;;;;;5051341;28;19920;-56
2022/01/20 09:24:47;;;;;;;;;;;;;;;;;;5051478;28;19924;-57
2022/01/20 09:27:13;;;;;;;;;;;;;;;;;;5051986;28;19921;-57
2022/01/20 09:29:39;;;;;;;;;;;;;;;;;;5050889;28;19951;-57
2022/01/20 09:32:07;;;;;;;;;;;;;;;;;;5051489;28;19990;-57
2022/01/20 09:34:33;;;;;;;;;;;;;;;;;;5050743;28;20378;-56
2022/01/20 09:36:59;;;;;;;;;;;;;;;;;;5051683;28;19947;-57
2022/01/20 09:39:25;;;;;;;;;;;;;;;;;;5051626;28;20357;-56
2022/01/20 09:41:51;;;;;;;;;;;;;;;;;;5049942;28;19925;-56
2022/01/20 09:44:17;;;;;;;;;;;;;;;;;;5051333;28;20371;-56
2022/01/20 09:46:43;;;;;;;;;;;;;;;;;;5051441;28;19974;-56
2022/01/20 09:49:11;;;;;;;;;;;;;;;;;;5050680;28;20355;-56
2022/01/20 09:51:37;;;;;;;;;;;;;;;;;;5052060;28;19927;-56
2022/01/20 09:54:04;;;;;;;;;;;;;;;;;;5051292;28;19921;-57
2022/01/20 09:56:30;;;;;;;;;;;;;;;;;;5050946;28;20078;-57
2022/01/20 09:58:56;;;;;;;;;;;;;;;;;;5051184;28;20421;-57
2022/01/20 10:01:22;;;;;;;;;;;;;;;;;;5051302;28;19920;-56
2022/01/20 10:03:48;;;;;;;;;;;;;;;;;;5050703;28;19920;-57
2022/01/20 10:06:14;;;;;;;;;;;;;;;;;;5051447;28;19970;-57
2022/01/20 10:08:41;;;;;;;;;;;;;;;;;;5051614;28;20027;-57
2022/01/20 10:11:09;;;;;;;;;;;;;;;;;;5050250;28;19921;-57
2022/01/20 10:13:35;;;;;;;;;;;;;;;;;;5051285;28;20393;-57
2022/01/20 10:16:01;;;;;;;;;;;;;;;;;;5051011;28;19932;-57
2022/01/20 10:18:27;;;;;;;;;;;;;;;;;;5050530;28;20425;-57
2022/01/20 10:20:53;;;;;;;;;;;;;;;;;;5050913;28;19928;-56
2022/01/20 10:23:19;;;;;;;;;;;;;;;;;;5051244;28;20359;-57
2022/01/20 10:25:46;;;;;;;;;;;;;;;;;;5050285;28;19920;-57
2022/01/20 10:28:12;;;;;;;;;;;;;;;;;;5051299;28;20368;-56
2022/01/20 10:30:38;;;;;;;;;;;;;;;;;;5051077;28;19925;-56
2022/01/20 10:33:04;;;;;;;;;;;;;;;;;;5050253;28;19921;-57
2022/01/20 10:35:32;;;;;;;;;;;;;;;;;;5051250;28;19982;-57
2022/01/20 10:38:00;;;;;;;;;;;;;;;;;;5050340;28;20337;-57
2022/01/20 10:40:26;;;;;;;;;;;;;;;;;;5051032;28;19927;-57
2022/01/20 10:42:53;;;;;;;;;;;;;;;;;;5050860;28;19974;-56
2022/01/20 10:45:19;;;;;;;;;;;;;;;;;;5050128;28;19966;-57
2022/01/20 10:47:45;;;;;;;;;;;;;;;;;;5050937;28;19927;-57
2022/01/20 10:50:11;;;;;;;;;;;;;;;;;;5051201;28;19921;-57
2022/01/20 10:52:37;;;;;;;;;;;;;;;;;;5052691;28;19976;-57
2022/01/20 10:55:03;;;;;;;;;;;;;;;;;;5054314;28;19921;-57
2022/01/20 10:57:30;;;;;;;;;;;;;;;;;;5054445;28;20350;-57
2022/01/20 10:59:56;;;;;;;;;;;;;;;;;;5053358;28;19924;-57
2022/01/20 11:02:22;;;;;;;;;;;;;;;;;;5054158;28;20355;-57
2022/01/20 11:04:48;;;;;;;;;;;;;;;;;;5054252;28;20062;-56
2022/01/20 11:07:14;;;;;;;;;;;;;;;;;;5053229;28;20046;-57
2022/01/20 11:09:43;;;;;;;;;;;;;;;;;;5054462;28;19924;-57
2022/01/20 11:12:09;;;;;;;;;;;;;;;;;;5054196;28;19924;-57
2022/01/20 11:14:35;;;;;;;;;;;;;;;;;;5053361;28;20388;-57
2022/01/20 11:17:02;;;;;;;;;;;;;;;;;;5054018;28;19983;-57
2022/01/20 11:19:31;;;;;;;;;;;;;;;;;;5054302;28;19921;-57
2022/01/20 11:21:57;;;;;;;;;;;;;;;;;;5052865;28;19927;-57
2022/01/20 11:24:23;;;;;;;;;;;;;;;;;;5054015;28;19951;-57
2022/01/20 11:26:49;;;;;;;;;;;;;;;;;;5053492;28;19924;-57
2022/01/20 11:29:16;;;;;;;;;;;;;;;;;;5053084;28;19925;-57
2022/01/20 11:31:42;;;;;;;;;;;;;;;;;;5053606;28;19920;-57
2022/01/20 11:34:08;;;;;;;;;;;;;;;;;;5053313;28;20338;-58
2022/01/20 11:36:34;;;;;;;;;;;;;;;;;;5053795;28;19925;-57
2022/01/20 11:39:00;;;;;;;;;;;;;;;;;;5053345;28;20329;-57
2022/01/20 11:41:26;;;;;;;;;;;;;;;;;;5052770;28;19931;-57
2022/01/20 11:43:53;;;;;;;;;;;;;;;;;;5053718;28;19921;-57
2022/01/20 11:46:19;;;;;;;;;;;;;;;;;;5053885;28;20367;-57
2022/01/20 11:48:45;;;;;;;;;;;;;;;;;;5052551;28;19982;-57
2022/01/20 11:51:11;;;;;;;;;;;;;;;;;;5053679;28;20338;-57
2022/01/20 11:53:41;;;;;;;;;;;;;;;;;;5053517;28;19921;-56
2022/01/20 11:56:07;;;;;;;;;;;;;;;;;;5052851;28;19970;-57
2022/01/20 11:58:33;;;;;;;;;;;;;;;;;;5053583;28;19924;-57
2022/01/20 12:01:00;;;;;;;;;;;;;;;;;;5053081;28;19920;-57
2022/01/20 12:03:26;;;;;;;;;;;;;;;;;;5051776;28;19931;-56
2022/01/20 12:05:52;;;;;;;;;;;;;;;;;;5052951;28;19920;-57
2022/01/20 12:08:18;;;;;;;;;;;;;;;;;;5053084;28;20429;-57
2022/01/20 12:10:44;;;;;;;;;;;;;;;;;;5052011;28;20458;-57
2022/01/20 12:13:11;;;;;;;;;;;;;;;;;;5053324;28;19927;-57
2022/01/20 12:15:37;;;;;;;;;;;;;;;;;;5053371;28;20356;-57
2022/01/20 12:18:03;;;;;;;;;;;;;;;;;;5051936;28;20387;-57
2022/01/20 12:20:29;;;;;;;;;;;;;;;;;;5053057;28;19967;-57
2022/01/20 12:22:55;;;;;;;;;;;;;;;;;;5052357;28;20361;-57
2022/01/20 12:25:21;;;;;;;;;;;;;;;;;;5051908;28;19921;-57
2022/01/20 12:27:47;;;;;;;;;;;;;;;;;;5052608;28;20430;-57
2022/01/20 12:30:13;;;;;;;;;;;;;;;;;;5052833;28;19931;-57
2022/01/20 12:32:39;;;;;;;;;;;;;;;;;;5052157;28;19921;-57
2022/01/20 12:35:06;;;;;;;;;;;;;;;;;;5052334;28;20236;-57
2022/01/20 12:37:32;;;;;;;;;;;;;;;;;;5051920;28;19920;-57
2022/01/20 12:39:58;;;;;;;;;;;;;;;;;;5052342;28;19974;-57
2022/01/20 12:42:24;;;;;;;;;;;;;;;;;;5052770;28;19990;-58
2022/01/20 12:45:02;;;;;;;;;;;;;;;;;;5051379;28;19921;-57
2022/01/20 12:47:28;;;;;;;;;;;;;;;;;;5052635;28;19928;-57
2022/01/20 12:49:54;;;;;;;;;;;;;;;;;;5051962;28;20326;-57
2022/01/20 12:52:20;;;;;;;;;;;;;;;;;;5051667;28;19975;-57
2022/01/20 12:54:46;;;;;;;;;;;;;;;;;;5051695;28;19920;-57
2022/01/20 12:57:13;;;;;;;;;;;;;;;;;;5052534;28;19920;-57
2022/01/20 12:59:39;;;;;;;;;;;;;;;;;;5051418;28;19956;-57
2022/01/20 13:02:06;;;;;;;;;;;;;;;;;;5051921;28;19975;-57
2022/01/20 13:04:32;;;;;;;;;;;;;;;;;;5052110;28;19925;-56
2022/01/20 13:07:00;;;;;;;;;;;;;;;;;;5051216;28;19950;-57
2022/01/20 13:09:26;;;;;;;;;;;;;;;;;;5051839;28;20352;-57
2022/01/20 13:11:55;;;;;;;;;;;;;;;;;;5052186;28;19920;-57
2022/01/20 13:14:22;;;;;;;;;;;;;;;;;;5051185;28;20325;-57
2022/01/20 13:16:48;;;;;;;;;;;;;;;;;;5050901;28;19927;-57
2022/01/20 13:19:14;;;;;;;;;;;;;;;;;;5051950;28;19996;-57
2022/01/20 13:21:40;;;;;;;;;;;;;;;;;;5051019;28;19925;-57
2022/01/20 13:24:08;;;;;;;;;;;;;;;;;;5052030;28;20019;-57
2022/01/20 13:26:34;;;;;;;;;;;;;;;;;;5051579;28;19924;-57
2022/01/20 13:29:00;;;;;;;;;;;;;;;;;;5051990;28;19921;-57
2022/01/20 13:31:26;;;;;;;;;;;;;;;;;;5051523;28;20424;-57
2022/01/20 13:33:52;;;;;;;;;;;;;;;;;;5050725;28;19921;-57
2022/01/20 13:36:20;;;;;;;;;;;;;;;;;;5051359;28;20429;-57
2022/01/20 13:38:48;;;;;;;;;;;;;;;;;;5051554;28;19931;-57
2022/01/20 13:41:14;;;;;;;;;;;;;;;;;;5050706;28;20288;-57
2022/01/20 13:46:24;;;;;;;;;;;;;;;;;;5051627;28;20416;-57
2022/01/20 13:48:50;;;;;;;;;;;;;;;;;;5051057;28;19928;-57
2022/01/20 13:51:17;;;;;;;;;;;;;;;;;;5051322;28;20375;-57
2022/01/20 13:53:43;;;;;;;;;;;;;;;;;;5051422;28;19928;-57
2022/01/20 13:56:10;;;;;;;;;;;;;;;;;;5050775;28;19924;-57
2022/01/20 13:58:37;;;;;;;;;;;;;;;;;;5051614;28;19921;-57
2022/01/20 14:01:05;;;;;;;;;;;;;;;;;;5050912;28;19921;-57
2022/01/20 14:03:31;;;;;;;;;;;;;;;;;;5050929;28;19921;-57
2022/01/20 14:05:57;;;;;;;;;;;;;;;;;;5050975;28;19921;-56
2022/01/20 14:08:23;;;;;;;;;;;;;;;;;;5051547;28;19924;-58
2022/01/20 14:10:49;;;;;;;;;;;;;;;;;;5050187;28;19975;-57
2022/01/20 14:13:15;;;;;;;;;;;;;;;;;;5051477;28;19925;-57
2022/01/20 14:15:42;;;;;;;;;;;;;;;;;;5051701;28;19924;-57
2022/01/20 14:18:08;;;;;;;;;;;;;;;;;;5050599;28;19921;-57
2022/01/20 14:20:34;;;;;;;;;;;;;;;;;;5051411;28;19921;-57
2022/01/20 14:23:00;;;;;;;;;;;;;;;;;;5050018;28;19920;-57
2022/01/20 14:25:27;;;;;;;;;;;;;;;;;;5051401;28;19924;-57
2022/01/20 14:27:53;;;;;;;;;;;;;;;;;;5053555;28;19928;-57
2022/01/20 14:30:19;;;;;;;;;;;;;;;;;;5054226;28;20421;-57
2022/01/20 14:32:45;;;;;;;;;;;;;;;;;;5054623;28;19928;-57
2022/01/20 14:35:11;;;;;;;;;;;;;;;;;;5055223;28;19920;-57
2022/01/20 14:37:38;;;;;;;;;;;;;;;;;;5054104;28;19933;-57
2022/01/20 14:40:04;;;;;;;;;;;;;;;;;;5054745;28;19925;-57
2022/01/20 14:42:30;;;;;;;;;;;;;;;;;;5054647;28;19925;-57
2022/01/20 14:44:56;;;;;;;;;;;;;;;;;;5053700;28;19929;-57
2022/01/20 14:47:23;;;;;;;;;;;;;;;;;;5054860;28;19928;-57
2022/01/20 14:49:49;;;;;;;;;;;;;;;;;;5054628;28;19921;-56
2022/01/20 14:52:15;;;;;;;;;;;;;;;;;;5053730;28;20371;-57
2022/01/20 14:54:41;;;;;;;;;;;;;;;;;;5054862;28;19966;-56
2022/01/20 14:57:07;;;;;;;;;;;;;;;;;;5054368;28;20018;-56
2022/01/20 14:59:33;;;;;;;;;;;;;;;;;;5053613;28;20436;-57
2022/01/20 15:01:59;;;;;;;;;;;;;;;;;;5054277;28;19920;-57
2022/01/20 15:04:25;;;;;;;;;;;;;;;;;;5054252;28;20619;-57
2022/01/20 15:06:51;;;;;;;;;;;;;;;;;;5053229;28;19920;-57
2022/01/20 15:09:18;;;;;;;;;;;;;;;;;;5054278;28;20363;-57
2022/01/20 15:11:44;;;;;;;;;;;;;;;;;;5054096;28;19975;-56
2022/01/20 15:14:10;;;;;;;;;;;;;;;;;;5053346;28;20295;-57
2022/01/20 15:16:36;;;;;;;;;;;;;;;;;;5054403;28;19920;-57
2022/01/20 15:19:05;;;;;;;;;;;;;;;;;;5053630;28;20418;-57
2022/01/20 15:21:31;;;;;;;;;;;;;;;;;;5053780;28;19921;-57
2022/01/20 15:23:57;;;;;;;;;;;;;;;;;;5053474;28;19978;-57
2022/01/20 15:26:23;;;;;;;;;;;;;;;;;;5053289;28;20461;-57
2022/01/20 15:28:53;;;;;;;;;;;;;;;;;;5053477;28;20067;-57
2022/01/20 15:31:20;;;;;;;;;;;;;;;;;;5054077;28;19974;-57
2022/01/20 15:33:46;;;;;;;;;;;;;;;;;;5052694;28;19928;-57
2022/01/20 15:36:13;;;;;;;;;;;;;;;;;;5053998;28;19921;-57
2022/01/20 15:38:39;;;;;;;;;;;;;;;;;;5052584;28;20359;-57
2022/01/20 15:41:05;;;;;;;;;;;;;;;;;;5052654;28;19920;-57
2022/01/20 15:43:31;;;;;;;;;;;;;;;;;;5053654;28;20330;-57
2022/01/20 15:45:58;;;;;;;;;;;;;;;;;;5053435;28;19924;-57
2022/01/20 15:48:24;;;;;;;;;;;;;;;;;;5052785;28;19963;-57
2022/01/20 15:50:51;;;;;;;;;;;;;;;;;;5053355;28;20341;-57
2022/01/20 15:53:17;;;;;;;;;;;;;;;;;;5053489;28;19924;-57
2022/01/20 15:55:43;;;;;;;;;;;;;;;;;;5052278;28;19920;-57
2022/01/20 15:58:09;;;;;;;;;;;;;;;;;;5053728;28;19975;-57
2022/01/20 16:00:35;;;;;;;;;;;;;;;;;;5053391;28;19990;-57
2022/01/20 16:03:01;;;;;;;;;;;;;;;;;;5052240;28;19994;-57
2022/01/20 16:05:28;;;;;;;;;;;;;;;;;;5053026;28;20330;-57
2022/01/20 16:07:54;;;;;;;;;;;;;;;;;;5052717;28;19975;-58
2022/01/20 16:10:20;;;;;;;;;;;;;;;;;;5052158;28;20333;-57
2022/01/20 16:12:47;;;;;;;;;;;;;;;;;;5053024;28;19925;-57
2022/01/20 16:15:13;;;;;;;;;;;;;;;;;;5052918;28;19943;-57
2022/01/20 16:17:39;;;;;;;;;;;;;;;;;;5052243;28;19966;-57
2022/01/20 16:20:06;;;;;;;;;;;;;;;;;;5052385;28;19920;-58
2022/01/20 16:22:32;;;;;;;;;;;;;;;;;;5051875;28;19974;-57
2022/01/20 16:24:58;;;;;;;;;;;;;;;;;;5052302;28;19924;-57
2022/01/20 16:27:24;;;;;;;;;;;;;;;;;;5052908;28;19925;-57
2022/01/20 16:29:50;;;;;;;;;;;;;;;;;;5051599;28;19920;-57
2022/01/20 16:32:18;;;;;;;;;;;;;;;;;;5052535;28;19983;-58
2022/01/20 16:34:44;;;;;;;;;;;;;;;;;;5052130;28;19966;-57
2022/01/20 16:37:10;;;;;;;;;;;;;;;;;;5052182;28;20310;-57
2022/01/20 16:39:36;;;;;;;;;;;;;;;;;;5052249;28;20367;-58
2022/01/20 16:42:02;;;;;;;;;;;;;;;;;;5052376;28;19929;-58
2022/01/20 16:44:28;;;;;;;;;;;;;;;;;;5051408;28;20333;-58
2022/01/20 16:46:55;;;;;;;;;;;;;;;;;;5051890;28;19967;-59
2022/01/20 16:49:21;;;;;;;;;;;;;;;;;;5051959;28;20337;-58
2022/01/20 16:51:47;;;;;;;;;;;;;;;;;;5051128;28;19975;-57
2022/01/20 16:54:13;;;;;;;;;;;;;;;;;;5052153;28;19990;-58
2022/01/20 16:56:39;;;;;;;;;;;;;;;;;;5052188;28;19959;-58
2022/01/20 16:59:05;;;;;;;;;;;;;;;;;;5051228;28;19966;-58
2022/01/20 17:01:31;;;;;;;;;;;;;;;;;;5051865;28;19924;-58
2022/01/20 17:03:57;;;;;;;;;;;;;;;;;;5051618;28;20421;-59
2022/01/20 17:06:24;;;;;;;;;;;;;;;;;;5050692;28;19924;-59
2022/01/20 17:08:50;;;;;;;;;;;;;;;;;;5051420;28;19979;-59
2022/01/20 17:11:16;;;;;;;;;;;;;;;;;;5052055;28;19924;-58
2022/01/20 17:13:43;;;;;;;;;;;;;;;;;;5051642;28;19967;-58
2022/01/20 17:16:09;;;;;;;;;;;;;;;;;;5051568;28;19924;-58
2022/01/20 17:18:35;;;;;;;;;;;;;;;;;;5051738;28;20362;-58
2022/01/20 17:21:01;;;;;;;;;;;;;;;;;;5050030;28;19924;-57
2022/01/20 17:23:28;;;;;;;;;;;;;;;;;;5031084;28;20449;-57
2022/01/20 17:25:54;;;;;;;;;;;;;;;;;;5030755;28;19921;-57
2022/01/20 17:28:20;;;;;;;;;;;;;;;;;;5031945;28;19921;-57